sensor_id;sensor_type;location;lat;lon;timestamp;P1;durP1;ratioP1;P2;durP2;ratioP2
74904;SDS011;63465;50.862;6.220;2023-01-13T00:02:13;1.43;;;0.87;;
74904;SDS011;63465;50.862;6.220;2023-01-13T00:04:40;0.70;;;0.70;;
74904;SDS011;63465;50.862;6.220;2023-01-13T00:07:07;0.70;;;0.70;;
74904;SDS011;63465;50.862;6.220;2023-01-13T00:09:35;0.70;;;0.70;;
74904;SDS011;63465;50.862;6.220;2023-01-13T00:12:02;0.50;;;0.50;;
74904;SDS011;63465;50.862;6.220;2023-01-13T00:14:31;0.80;;;0.80;;
74904;SDS011;63465;50.862;6.220;2023-01-13T00:16:58;0.77;;;0.60;;
74904;SDS011;63465;50.862;6.220;2023-01-13T00:19:25;0.53;;;0.53;;
74904;SDS011;63465;50.862;6.220;2023-01-13T00:21:52;0.53;;;0.53;;
74904;SDS011;63465;50.862;6.220;2023-01-13T00:24:18;0.50;;;0.50;;
74904;SDS011;63465;50.862;6.220;2023-01-13T00:26:46;0.70;;;0.60;;
74904;SDS011;63465;50.862;6.220;2023-01-13T00:29:13;0.53;;;0.53;;
74904;SDS011;63465;50.862;6.220;2023-01-13T00:31:40;1.90;;;0.50;;
74904;SDS011;63465;50.862;6.220;2023-01-13T00:34:06;0.60;;;0.60;;
74904;SDS011;63465;50.862;6.220;2023-01-13T00:36:33;0.70;;;0.70;;
74904;SDS011;63465;50.862;6.220;2023-01-13T00:39:00;2.20;;;0.50;;
74904;SDS011;63465;50.862;6.220;2023-01-13T00:41:27;1.07;;;0.50;;
74904;SDS011;63465;50.862;6.220;2023-01-13T00:44:15;2.17;;;0.57;;
74904;SDS011;63465;50.862;6.220;2023-01-13T00:46:41;2.47;;;0.70;;
74904;SDS011;63465;50.862;6.220;2023-01-13T00:49:07;2.87;;;0.70;;
74904;SDS011;63465;50.862;6.220;2023-01-13T00:51:34;1.10;;;0.87;;
74904;SDS011;63465;50.862;6.220;2023-01-13T00:54:01;3.23;;;0.97;;
74904;SDS011;63465;50.862;6.220;2023-01-13T00:56:27;5.53;;;1.00;;
74904;SDS011;63465;50.862;6.220;2023-01-13T00:58:54;3.37;;;1.00;;
74904;SDS011;63465;50.862;6.220;2023-01-13T01:01:24;1.43;;;0.80;;
74904;SDS011;63465;50.862;6.220;2023-01-13T01:03:51;4.47;;;0.90;;
74904;SDS011;63465;50.862;6.220;2023-01-13T01:06:20;2.10;;;0.63;;
74904;SDS011;63465;50.862;6.220;2023-01-13T01:08:48;1.47;;;0.60;;
74904;SDS011;63465;50.862;6.220;2023-01-13T01:11:15;4.70;;;1.03;;
74904;SDS011;63465;50.862;6.220;2023-01-13T01:13:43;6.40;;;1.00;;
74904;SDS011;63465;50.862;6.220;2023-01-13T01:16:11;1.83;;;0.60;;
74904;SDS011;63465;50.862;6.220;2023-01-13T01:18:42;1.83;;;0.70;;
74904;SDS011;63465;50.862;6.220;2023-01-13T01:21:10;5.60;;;0.80;;
74904;SDS011;63465;50.862;6.220;2023-01-13T01:23:38;1.40;;;0.90;;
74904;SDS011;63465;50.862;6.220;2023-01-13T01:26:06;0.70;;;0.70;;
74904;SDS011;63465;50.862;6.220;2023-01-13T01:28:34;4.20;;;0.60;;
74904;SDS011;63465;50.862;6.220;2023-01-13T01:31:04;1.00;;;0.90;;
74904;SDS011;63465;50.862;6.220;2023-01-13T01:33:31;0.77;;;0.57;;
74904;SDS011;63465;50.862;6.220;2023-01-13T01:36:00;2.53;;;0.90;;
74904;SDS011;63465;50.862;6.220;2023-01-13T01:38:27;4.60;;;0.80;;
74904;SDS011;63465;50.862;6.220;2023-01-13T01:40:54;1.10;;;0.70;;
74904;SDS011;63465;50.862;6.220;2023-01-13T01:43:21;1.37;;;1.00;;
74904;SDS011;63465;50.862;6.220;2023-01-13T01:46:06;1.33;;;0.80;;
74904;SDS011;63465;50.862;6.220;2023-01-13T01:48:33;3.73;;;0.80;;
74904;SDS011;63465;50.862;6.220;2023-01-13T01:51:07;0.67;;;0.60;;
74904;SDS011;63465;50.862;6.220;2023-01-13T01:53:38;2.03;;;0.90;;
74904;SDS011;63465;50.862;6.220;2023-01-13T01:56:06;1.53;;;0.97;;
74904;SDS011;63465;50.862;6.220;2023-01-13T01:58:36;1.80;;;0.60;;
74904;SDS011;63465;50.862;6.220;2023-01-13T02:01:09;1.13;;;0.70;;
74904;SDS011;63465;50.862;6.220;2023-01-13T02:03:37;0.60;;;0.60;;
74904;SDS011;63465;50.862;6.220;2023-01-13T02:06:10;1.57;;;0.80;;
74904;SDS011;63465;50.862;6.220;2023-01-13T02:08:37;3.37;;;1.00;;
74904;SDS011;63465;50.862;6.220;2023-01-13T02:11:05;0.60;;;0.60;;
74904;SDS011;63465;50.862;6.220;2023-01-13T02:13:53;1.17;;;0.77;;
74904;SDS011;63465;50.862;6.220;2023-01-13T02:16:20;1.60;;;0.90;;
74904;SDS011;63465;50.862;6.220;2023-01-13T02:18:51;2.03;;;1.00;;
74904;SDS011;63465;50.862;6.220;2023-01-13T02:21:37;2.50;;;0.87;;
74904;SDS011;63465;50.862;6.220;2023-01-13T02:24:29;2.50;;;1.03;;
74904;SDS011;63465;50.862;6.220;2023-01-13T02:27:23;2.43;;;1.47;;
74904;SDS011;63465;50.862;6.220;2023-01-13T02:30:10;3.20;;;1.43;;
74904;SDS011;63465;50.862;6.220;2023-01-13T02:33:16;1.67;;;1.10;;
74904;SDS011;63465;50.862;6.220;2023-01-13T02:35:54;1.67;;;1.43;;
74904;SDS011;63465;50.862;6.220;2023-01-13T02:38:28;4.20;;;1.40;;
74904;SDS011;63465;50.862;6.220;2023-01-13T02:41:01;11.77;;;1.27;;
74904;SDS011;63465;50.862;6.220;2023-01-13T02:43:46;1.17;;;0.80;;
74904;SDS011;63465;50.862;6.220;2023-01-13T02:46:35;3.23;;;0.80;;
74904;SDS011;63465;50.862;6.220;2023-01-13T02:49:09;6.23;;;1.10;;
74904;SDS011;63465;50.862;6.220;2023-01-13T02:51:39;2.57;;;0.90;;
74904;SDS011;63465;50.862;6.220;2023-01-13T02:54:11;4.97;;;0.67;;
74904;SDS011;63465;50.862;6.220;2023-01-13T02:56:43;2.00;;;0.90;;
74904;SDS011;63465;50.862;6.220;2023-01-13T02:59:12;5.90;;;1.50;;
74904;SDS011;63465;50.862;6.220;2023-01-13T03:01:41;3.90;;;0.97;;
74904;SDS011;63465;50.862;6.220;2023-01-13T03:04:11;1.53;;;0.93;;
74904;SDS011;63465;50.862;6.220;2023-01-13T03:06:41;2.60;;;0.80;;
74904;SDS011;63465;50.862;6.220;2023-01-13T03:09:21;4.67;;;0.90;;
74904;SDS011;63465;50.862;6.220;2023-01-13T03:11:55;6.43;;;1.03;;
74904;SDS011;63465;50.862;6.220;2023-01-13T03:14:32;0.70;;;0.70;;
74904;SDS011;63465;50.862;6.220;2023-01-13T03:17:09;5.50;;;0.90;;
74904;SDS011;63465;50.862;6.220;2023-01-13T03:19:43;5.50;;;1.17;;
74904;SDS011;63465;50.862;6.220;2023-01-13T03:22:20;1.10;;;0.77;;
74904;SDS011;63465;50.862;6.220;2023-01-13T03:24:53;1.33;;;1.03;;
74904;SDS011;63465;50.862;6.220;2023-01-13T03:27:25;2.33;;;0.80;;
74904;SDS011;63465;50.862;6.220;2023-01-13T03:29:57;1.60;;;0.87;;
74904;SDS011;63465;50.862;6.220;2023-01-13T03:32:31;3.00;;;0.70;;
74904;SDS011;63465;50.862;6.220;2023-01-13T03:35:03;4.93;;;0.80;;
74904;SDS011;63465;50.862;6.220;2023-01-13T03:37:36;2.63;;;1.30;;
74904;SDS011;63465;50.862;6.220;2023-01-13T03:40:07;2.20;;;1.03;;
74904;SDS011;63465;50.862;6.220;2023-01-13T03:42:40;2.93;;;0.97;;
74904;SDS011;63465;50.862;6.220;2023-01-13T03:45:30;2.20;;;1.33;;
74904;SDS011;63465;50.862;6.220;2023-01-13T03:48:00;4.33;;;1.07;;
74904;SDS011;63465;50.862;6.220;2023-01-13T03:50:31;5.70;;;1.00;;
74904;SDS011;63465;50.862;6.220;2023-01-13T03:53:02;5.53;;;1.53;;
74904;SDS011;63465;50.862;6.220;2023-01-13T03:55:33;5.93;;;1.50;;
74904;SDS011;63465;50.862;6.220;2023-01-13T03:58:03;11.73;;;1.90;;
74904;SDS011;63465;50.862;6.220;2023-01-13T04:00:39;12.97;;;2.27;;
74904;SDS011;63465;50.862;6.220;2023-01-13T04:03:14;6.47;;;1.73;;
74904;SDS011;63465;50.862;6.220;2023-01-13T04:05:49;9.63;;;1.77;;
74904;SDS011;63465;50.862;6.220;2023-01-13T04:08:21;6.37;;;1.43;;
74904;SDS011;63465;50.862;6.220;2023-01-13T04:10:51;9.40;;;1.60;;
74904;SDS011;63465;50.862;6.220;2023-01-13T04:13:22;6.90;;;1.47;;
74904;SDS011;63465;50.862;6.220;2023-01-13T04:15:52;8.53;;;1.30;;
74904;SDS011;63465;50.862;6.220;2023-01-13T04:18:21;4.40;;;1.83;;
74904;SDS011;63465;50.862;6.220;2023-01-13T04:20:51;10.47;;;1.33;;
74904;SDS011;63465;50.862;6.220;2023-01-13T04:23:19;5.17;;;1.03;;
74904;SDS011;63465;50.862;6.220;2023-01-13T04:25:47;2.70;;;1.10;;
74904;SDS011;63465;50.862;6.220;2023-01-13T04:28:15;6.47;;;0.87;;
74904;SDS011;63465;50.862;6.220;2023-01-13T04:30:43;2.63;;;1.10;;
74904;SDS011;63465;50.862;6.220;2023-01-13T04:33:10;7.73;;;1.40;;
74904;SDS011;63465;50.862;6.220;2023-01-13T04:35:39;3.13;;;0.97;;
74904;SDS011;63465;50.862;6.220;2023-01-13T04:38:06;3.80;;;1.20;;
74904;SDS011;63465;50.862;6.220;2023-01-13T04:40:34;6.40;;;1.30;;
74904;SDS011;63465;50.862;6.220;2023-01-13T04:43:01;5.23;;;1.10;;
74904;SDS011;63465;50.862;6.220;2023-01-13T04:45:29;4.73;;;1.67;;
74904;SDS011;63465;50.862;6.220;2023-01-13T04:47:56;3.60;;;1.10;;
74904;SDS011;63465;50.862;6.220;2023-01-13T04:50:23;9.77;;;1.33;;
74904;SDS011;63465;50.862;6.220;2023-01-13T04:52:52;4.77;;;0.97;;
74904;SDS011;63465;50.862;6.220;2023-01-13T04:55:20;8.03;;;1.20;;
74904;SDS011;63465;50.862;6.220;2023-01-13T04:57:47;2.90;;;1.00;;
74904;SDS011;63465;50.862;6.220;2023-01-13T05:00:15;3.53;;;1.57;;
74904;SDS011;63465;50.862;6.220;2023-01-13T05:02:43;1.47;;;1.00;;
74904;SDS011;63465;50.862;6.220;2023-01-13T05:05:09;4.70;;;1.00;;
74904;SDS011;63465;50.862;6.220;2023-01-13T05:07:36;5.90;;;1.40;;
74904;SDS011;63465;50.862;6.220;2023-01-13T05:10:05;2.20;;;1.10;;
74904;SDS011;63465;50.862;6.220;2023-01-13T05:12:32;4.00;;;1.20;;
74904;SDS011;63465;50.862;6.220;2023-01-13T05:15:16;5.60;;;1.33;;
74904;SDS011;63465;50.862;6.220;2023-01-13T05:18:00;5.87;;;0.90;;
74904;SDS011;63465;50.862;6.220;2023-01-13T05:20:27;4.57;;;0.90;;
74904;SDS011;63465;50.862;6.220;2023-01-13T05:22:54;0.73;;;0.73;;
74904;SDS011;63465;50.862;6.220;2023-01-13T05:25:40;8.23;;;1.47;;
74904;SDS011;63465;50.862;6.220;2023-01-13T05:28:08;3.03;;;0.87;;
74904;SDS011;63465;50.862;6.220;2023-01-13T05:30:35;2.67;;;1.00;;
74904;SDS011;63465;50.862;6.220;2023-01-13T05:33:06;8.00;;;1.10;;
74904;SDS011;63465;50.862;6.220;2023-01-13T05:35:33;4.53;;;1.10;;
74904;SDS011;63465;50.862;6.220;2023-01-13T05:38:00;6.23;;;1.10;;
74904;SDS011;63465;50.862;6.220;2023-01-13T05:40:26;7.77;;;1.47;;
74904;SDS011;63465;50.862;6.220;2023-01-13T05:43:13;6.77;;;1.10;;
74904;SDS011;63465;50.862;6.220;2023-01-13T05:45:47;1.00;;;0.70;;
74904;SDS011;63465;50.862;6.220;2023-01-13T05:48:15;3.87;;;1.20;;
74904;SDS011;63465;50.862;6.220;2023-01-13T05:50:43;6.53;;;1.77;;
74904;SDS011;63465;50.862;6.220;2023-01-13T05:53:10;2.60;;;1.00;;
74904;SDS011;63465;50.862;6.220;2023-01-13T05:55:38;8.37;;;1.20;;
74904;SDS011;63465;50.862;6.220;2023-01-13T05:58:05;3.93;;;1.10;;
74904;SDS011;63465;50.862;6.220;2023-01-13T06:00:33;3.00;;;1.13;;
74904;SDS011;63465;50.862;6.220;2023-01-13T06:03:01;3.93;;;1.43;;
74904;SDS011;63465;50.862;6.220;2023-01-13T06:05:28;6.93;;;1.00;;
74904;SDS011;63465;50.862;6.220;2023-01-13T06:07:55;3.80;;;1.00;;
74904;SDS011;63465;50.862;6.220;2023-01-13T06:10:22;3.43;;;1.10;;
74904;SDS011;63465;50.862;6.220;2023-01-13T06:12:49;3.67;;;1.27;;
74904;SDS011;63465;50.862;6.220;2023-01-13T06:15:16;0.77;;;0.77;;
74904;SDS011;63465;50.862;6.220;2023-01-13T06:17:44;2.57;;;0.80;;
74904;SDS011;63465;50.862;6.220;2023-01-13T06:20:12;2.50;;;1.10;;
74904;SDS011;63465;50.862;6.220;2023-01-13T06:22:40;3.23;;;1.33;;
74904;SDS011;63465;50.862;6.220;2023-01-13T06:25:11;2.43;;;0.87;;
74904;SDS011;63465;50.862;6.220;2023-01-13T06:27:43;2.57;;;1.10;;
74904;SDS011;63465;50.862;6.220;2023-01-13T06:30:10;6.23;;;1.10;;
74904;SDS011;63465;50.862;6.220;2023-01-13T06:32:38;3.37;;;1.10;;
74904;SDS011;63465;50.862;6.220;2023-01-13T06:35:10;2.43;;;0.90;;
74904;SDS011;63465;50.862;6.220;2023-01-13T06:37:40;1.20;;;1.10;;
74904;SDS011;63465;50.862;6.220;2023-01-13T06:40:09;5.53;;;1.13;;
74904;SDS011;63465;50.862;6.220;2023-01-13T06:42:39;3.80;;;0.80;;
74904;SDS011;63465;50.862;6.220;2023-01-13T06:45:24;3.80;;;0.87;;
74904;SDS011;63465;50.862;6.220;2023-01-13T06:47:52;2.80;;;1.07;;
74904;SDS011;63465;50.862;6.220;2023-01-13T06:50:22;0.93;;;0.70;;
74904;SDS011;63465;50.862;6.220;2023-01-13T06:52:49;2.90;;;0.73;;
74904;SDS011;63465;50.862;6.220;2023-01-13T06:55:15;4.63;;;1.00;;
74904;SDS011;63465;50.862;6.220;2023-01-13T06:57:49;1.13;;;0.80;;
74904;SDS011;63465;50.862;6.220;2023-01-13T07:00:17;1.77;;;0.83;;
74904;SDS011;63465;50.862;6.220;2023-01-13T07:02:44;1.93;;;1.00;;
74904;SDS011;63465;50.862;6.220;2023-01-13T07:05:11;3.03;;;0.80;;
74904;SDS011;63465;50.862;6.220;2023-01-13T07:07:39;5.03;;;1.20;;
74904;SDS011;63465;50.862;6.220;2023-01-13T07:10:08;1.63;;;0.97;;
74904;SDS011;63465;50.862;6.220;2023-01-13T07:12:37;3.70;;;0.90;;
74904;SDS011;63465;50.862;6.220;2023-01-13T07:15:19;1.47;;;1.10;;
74904;SDS011;63465;50.862;6.220;2023-01-13T07:17:46;1.93;;;0.83;;
74904;SDS011;63465;50.862;6.220;2023-01-13T07:20:12;1.97;;;0.83;;
74904;SDS011;63465;50.862;6.220;2023-01-13T07:22:40;1.37;;;0.93;;
74904;SDS011;63465;50.862;6.220;2023-01-13T07:25:07;1.13;;;1.03;;
74904;SDS011;63465;50.862;6.220;2023-01-13T07:27:35;2.67;;;1.00;;
74904;SDS011;63465;50.862;6.220;2023-01-13T07:30:02;7.30;;;1.50;;
74904;SDS011;63465;50.862;6.220;2023-01-13T07:32:30;4.80;;;1.57;;
74904;SDS011;63465;50.862;6.220;2023-01-13T07:34:57;5.50;;;1.33;;
74904;SDS011;63465;50.862;6.220;2023-01-13T07:37:28;3.70;;;1.30;;
74904;SDS011;63465;50.862;6.220;2023-01-13T07:39:56;4.00;;;1.33;;
74904;SDS011;63465;50.862;6.220;2023-01-13T07:42:23;3.43;;;1.23;;
74904;SDS011;63465;50.862;6.220;2023-01-13T07:45:08;2.10;;;1.33;;
74904;SDS011;63465;50.862;6.220;2023-01-13T07:47:35;6.33;;;2.10;;
74904;SDS011;63465;50.862;6.220;2023-01-13T07:50:02;8.30;;;1.63;;
74904;SDS011;63465;50.862;6.220;2023-01-13T07:52:29;9.60;;;1.60;;
74904;SDS011;63465;50.862;6.220;2023-01-13T07:54:56;8.40;;;1.40;;
74904;SDS011;63465;50.862;6.220;2023-01-13T07:57:23;5.53;;;1.10;;
74904;SDS011;63465;50.862;6.220;2023-01-13T07:59:50;5.33;;;1.33;;
74904;SDS011;63465;50.862;6.220;2023-01-13T08:02:16;8.40;;;1.90;;
74904;SDS011;63465;50.862;6.220;2023-01-13T08:04:43;4.17;;;1.57;;
74904;SDS011;63465;50.862;6.220;2023-01-13T08:07:10;12.17;;;2.07;;
74904;SDS011;63465;50.862;6.220;2023-01-13T08:09:36;6.97;;;1.43;;
74904;SDS011;63465;50.862;6.220;2023-01-13T08:12:05;8.70;;;2.10;;
74904;SDS011;63465;50.862;6.220;2023-01-13T08:14:49;21.57;;;2.53;;
74904;SDS011;63465;50.862;6.220;2023-01-13T08:17:18;5.97;;;1.37;;
74904;SDS011;63465;50.862;6.220;2023-01-13T08:19:44;5.47;;;1.83;;
74904;SDS011;63465;50.862;6.220;2023-01-13T08:22:11;5.60;;;1.43;;
74904;SDS011;63465;50.862;6.220;2023-01-13T08:24:38;4.70;;;1.50;;
74904;SDS011;63465;50.862;6.220;2023-01-13T08:27:06;10.60;;;1.33;;
74904;SDS011;63465;50.862;6.220;2023-01-13T08:29:33;15.37;;;2.17;;
74904;SDS011;63465;50.862;6.220;2023-01-13T08:31:59;8.70;;;1.80;;
74904;SDS011;63465;50.862;6.220;2023-01-13T08:34:26;4.83;;;1.80;;
74904;SDS011;63465;50.862;6.220;2023-01-13T08:36:53;8.00;;;1.93;;
74904;SDS011;63465;50.862;6.220;2023-01-13T08:39:19;5.87;;;2.20;;
74904;SDS011;63465;50.862;6.220;2023-01-13T08:41:46;20.03;;;2.10;;
74904;SDS011;63465;50.862;6.220;2023-01-13T08:44:25;5.30;;;1.40;;
74904;SDS011;63465;50.862;6.220;2023-01-13T08:46:53;9.20;;;1.90;;
74904;SDS011;63465;50.862;6.220;2023-01-13T08:49:20;11.50;;;1.60;;
74904;SDS011;63465;50.862;6.220;2023-01-13T08:51:48;11.50;;;1.93;;
74904;SDS011;63465;50.862;6.220;2023-01-13T08:54:16;13.97;;;1.90;;
74904;SDS011;63465;50.862;6.220;2023-01-13T08:56:44;7.30;;;1.60;;
74904;SDS011;63465;50.862;6.220;2023-01-13T08:59:11;15.93;;;2.63;;
74904;SDS011;63465;50.862;6.220;2023-01-13T09:01:39;13.50;;;2.53;;
74904;SDS011;63465;50.862;6.220;2023-01-13T09:04:08;4.73;;;1.40;;
74904;SDS011;63465;50.862;6.220;2023-01-13T09:06:40;18.47;;;2.73;;
74904;SDS011;63465;50.862;6.220;2023-01-13T09:09:07;14.60;;;3.37;;
74904;SDS011;63465;50.862;6.220;2023-01-13T09:11:34;4.47;;;1.63;;
74904;SDS011;63465;50.862;6.220;2023-01-13T09:14:22;13.10;;;2.60;;
74904;SDS011;63465;50.862;6.220;2023-01-13T09:16:52;9.40;;;2.67;;
74904;SDS011;63465;50.862;6.220;2023-01-13T09:19:18;11.67;;;2.40;;
74904;SDS011;63465;50.862;6.220;2023-01-13T09:21:45;11.10;;;2.30;;
74904;SDS011;63465;50.862;6.220;2023-01-13T09:24:12;13.20;;;1.97;;
74904;SDS011;63465;50.862;6.220;2023-01-13T09:26:38;12.17;;;2.23;;
74904;SDS011;63465;50.862;6.220;2023-01-13T09:29:05;12.60;;;2.20;;
74904;SDS011;63465;50.862;6.220;2023-01-13T09:31:32;9.07;;;2.10;;
74904;SDS011;63465;50.862;6.220;2023-01-13T09:34:01;13.13;;;1.70;;
74904;SDS011;63465;50.862;6.220;2023-01-13T09:36:45;13.87;;;2.37;;
74904;SDS011;63465;50.862;6.220;2023-01-13T09:39:12;15.80;;;3.40;;
74904;SDS011;63465;50.862;6.220;2023-01-13T09:41:40;7.73;;;2.60;;
74904;SDS011;63465;50.862;6.220;2023-01-13T09:44:28;6.23;;;1.57;;
74904;SDS011;63465;50.862;6.220;2023-01-13T09:47:03;9.30;;;1.77;;
74904;SDS011;63465;50.862;6.220;2023-01-13T09:49:39;18.20;;;2.80;;
74904;SDS011;63465;50.862;6.220;2023-01-13T09:52:09;17.67;;;2.00;;
74904;SDS011;63465;50.862;6.220;2023-01-13T09:54:40;7.23;;;2.20;;
74904;SDS011;63465;50.862;6.220;2023-01-13T09:57:09;9.60;;;1.90;;
74904;SDS011;63465;50.862;6.220;2023-01-13T09:59:36;5.90;;;1.77;;
74904;SDS011;63465;50.862;6.220;2023-01-13T10:02:11;11.37;;;2.53;;
74904;SDS011;63465;50.862;6.220;2023-01-13T10:05:11;13.00;;;2.10;;
74904;SDS011;63465;50.862;6.220;2023-01-13T10:07:43;10.20;;;1.87;;
74904;SDS011;63465;50.862;6.220;2023-01-13T10:10:17;7.40;;;1.63;;
74904;SDS011;63465;50.862;6.220;2023-01-13T10:12:59;19.07;;;2.23;;
74904;SDS011;63465;50.862;6.220;2023-01-13T10:15:38;10.20;;;2.47;;
74904;SDS011;63465;50.862;6.220;2023-01-13T10:18:12;10.00;;;2.20;;
74904;SDS011;63465;50.862;6.220;2023-01-13T10:20:51;3.87;;;1.73;;
74904;SDS011;63465;50.862;6.220;2023-01-13T10:23:28;12.53;;;2.07;;
74904;SDS011;63465;50.862;6.220;2023-01-13T10:26:06;6.87;;;2.30;;
74904;SDS011;63465;50.862;6.220;2023-01-13T10:28:49;13.37;;;3.10;;
74904;SDS011;63465;50.862;6.220;2023-01-13T10:31:16;11.83;;;2.37;;
74904;SDS011;63465;50.862;6.220;2023-01-13T10:33:45;9.13;;;2.17;;
74904;SDS011;63465;50.862;6.220;2023-01-13T10:36:13;14.07;;;1.97;;
74904;SDS011;63465;50.862;6.220;2023-01-13T10:38:42;14.87;;;2.23;;
74904;SDS011;63465;50.862;6.220;2023-01-13T10:41:17;10.93;;;2.60;;
74904;SDS011;63465;50.862;6.220;2023-01-13T10:43:57;10.53;;;1.90;;
74904;SDS011;63465;50.862;6.220;2023-01-13T10:46:26;11.07;;;2.07;;
74904;SDS011;63465;50.862;6.220;2023-01-13T10:48:54;7.17;;;1.53;;
74904;SDS011;63465;50.862;6.220;2023-01-13T10:51:24;10.87;;;2.03;;
74904;SDS011;63465;50.862;6.220;2023-01-13T10:53:56;9.30;;;2.17;;
74904;SDS011;63465;50.862;6.220;2023-01-13T10:56:27;9.50;;;2.43;;
74904;SDS011;63465;50.862;6.220;2023-01-13T10:59:08;8.40;;;2.33;;
74904;SDS011;63465;50.862;6.220;2023-01-13T11:01:39;15.47;;;2.90;;
74904;SDS011;63465;50.862;6.220;2023-01-13T11:04:15;5.60;;;1.83;;
74904;SDS011;63465;50.862;6.220;2023-01-13T11:06:54;6.47;;;1.83;;
74904;SDS011;63465;50.862;6.220;2023-01-13T11:09:21;18.17;;;3.07;;
74904;SDS011;63465;50.862;6.220;2023-01-13T11:11:50;5.00;;;2.13;;
74904;SDS011;63465;50.862;6.220;2023-01-13T11:14:21;8.17;;;2.47;;
74904;SDS011;63465;50.862;6.220;2023-01-13T11:17:03;9.10;;;2.53;;
74904;SDS011;63465;50.862;6.220;2023-01-13T11:19:36;5.00;;;2.00;;
74904;SDS011;63465;50.862;6.220;2023-01-13T11:22:09;10.20;;;2.30;;
74904;SDS011;63465;50.862;6.220;2023-01-13T11:24:43;13.47;;;2.00;;
74904;SDS011;63465;50.862;6.220;2023-01-13T11:27:16;10.17;;;1.90;;
74904;SDS011;63465;50.862;6.220;2023-01-13T11:29:51;13.67;;;1.93;;
74904;SDS011;63465;50.862;6.220;2023-01-13T11:32:26;9.50;;;1.47;;
74904;SDS011;63465;50.862;6.220;2023-01-13T11:34:59;9.20;;;2.00;;
74904;SDS011;63465;50.862;6.220;2023-01-13T11:37:31;5.33;;;1.53;;
74904;SDS011;63465;50.862;6.220;2023-01-13T11:40:03;5.60;;;1.90;;
74904;SDS011;63465;50.862;6.220;2023-01-13T11:42:34;6.10;;;1.77;;
74904;SDS011;63465;50.862;6.220;2023-01-13T11:45:06;7.60;;;1.70;;
74904;SDS011;63465;50.862;6.220;2023-01-13T11:47:42;6.33;;;1.50;;
74904;SDS011;63465;50.862;6.220;2023-01-13T11:50:13;6.27;;;1.47;;
74904;SDS011;63465;50.862;6.220;2023-01-13T11:52:54;8.70;;;2.60;;
74904;SDS011;63465;50.862;6.220;2023-01-13T11:55:31;10.10;;;1.87;;
74904;SDS011;63465;50.862;6.220;2023-01-13T11:58:07;12.10;;;2.10;;
74904;SDS011;63465;50.862;6.220;2023-01-13T12:00:54;5.63;;;1.53;;
74904;SDS011;63465;50.862;6.220;2023-01-13T12:03:40;6.80;;;2.20;;
74904;SDS011;63465;50.862;6.220;2023-01-13T12:06:15;4.90;;;1.70;;
74904;SDS011;63465;50.862;6.220;2023-01-13T12:11:37;6.87;;;1.60;;
74904;SDS011;63465;50.862;6.220;2023-01-13T12:14:30;11.70;;;2.40;;
74904;SDS011;63465;50.862;6.220;2023-01-13T12:17:05;7.90;;;1.80;;
74904;SDS011;63465;50.862;6.220;2023-01-13T12:19:41;14.77;;;2.83;;
74904;SDS011;63465;50.862;6.220;2023-01-13T12:22:14;6.10;;;1.60;;
74904;SDS011;63465;50.862;6.220;2023-01-13T12:24:48;9.97;;;2.10;;
74904;SDS011;63465;50.862;6.220;2023-01-13T12:27:19;12.27;;;2.23;;
74904;SDS011;63465;50.862;6.220;2023-01-13T12:29:54;15.70;;;2.50;;
74904;SDS011;63465;50.862;6.220;2023-01-13T12:32:26;11.93;;;2.30;;
74904;SDS011;63465;50.862;6.220;2023-01-13T12:35:05;12.27;;;2.00;;
74904;SDS011;63465;50.862;6.220;2023-01-13T12:37:48;11.63;;;2.23;;
74904;SDS011;63465;50.862;6.220;2023-01-13T12:40:27;9.03;;;1.80;;
74904;SDS011;63465;50.862;6.220;2023-01-13T12:43:11;17.13;;;2.33;;
74904;SDS011;63465;50.862;6.220;2023-01-13T12:49:18;17.90;;;1.97;;
74904;SDS011;63465;50.862;6.220;2023-01-13T12:57:29;8.40;;;2.57;;
74904;SDS011;63465;50.862;6.220;2023-01-13T13:00:10;12.13;;;1.60;;
74904;SDS011;63465;50.862;6.220;2023-01-13T13:02:40;17.03;;;2.77;;
74904;SDS011;63465;50.862;6.220;2023-01-13T13:08:19;18.23;;;2.27;;
74904;SDS011;63465;50.862;6.220;2023-01-13T13:11:00;4.83;;;1.80;;
74904;SDS011;63465;50.862;6.220;2023-01-13T13:13:59;13.57;;;1.77;;
74904;SDS011;63465;50.862;6.220;2023-01-13T13:22:21;9.93;;;2.00;;
74904;SDS011;63465;50.862;6.220;2023-01-13T13:25:22;6.80;;;1.53;;
74904;SDS011;63465;50.862;6.220;2023-01-13T13:27:59;7.17;;;1.90;;
74904;SDS011;63465;50.862;6.220;2023-01-13T13:30:40;8.30;;;2.03;;
74904;SDS011;63465;50.862;6.220;2023-01-13T13:33:18;7.73;;;2.13;;
74904;SDS011;63465;50.862;6.220;2023-01-13T13:36:02;12.10;;;1.93;;
74904;SDS011;63465;50.862;6.220;2023-01-13T13:38:50;10.03;;;2.07;;
74904;SDS011;63465;50.862;6.220;2023-01-13T13:41:45;5.13;;;1.83;;
74904;SDS011;63465;50.862;6.220;2023-01-13T13:44:36;5.57;;;1.40;;
74904;SDS011;63465;50.862;6.220;2023-01-13T13:47:24;7.13;;;2.10;;
74904;SDS011;63465;50.862;6.220;2023-01-13T13:50:03;5.73;;;1.70;;
74904;SDS011;63465;50.862;6.220;2023-01-13T13:52:34;11.20;;;2.10;;
74904;SDS011;63465;50.862;6.220;2023-01-13T13:55:06;7.80;;;2.40;;
74904;SDS011;63465;50.862;6.220;2023-01-13T13:57:43;14.03;;;2.23;;
74904;SDS011;63465;50.862;6.220;2023-01-13T14:00:20;8.37;;;2.40;;
74904;SDS011;63465;50.862;6.220;2023-01-13T14:02:53;8.70;;;1.70;;
74904;SDS011;63465;50.862;6.220;2023-01-13T14:05:23;5.60;;;2.17;;
74904;SDS011;63465;50.862;6.220;2023-01-13T14:07:58;14.77;;;2.40;;
74904;SDS011;63465;50.862;6.220;2023-01-13T14:10:28;13.80;;;2.43;;
74904;SDS011;63465;50.862;6.220;2023-01-13T14:12:57;6.73;;;2.10;;
74904;SDS011;63465;50.862;6.220;2023-01-13T14:15:26;6.50;;;2.10;;
74904;SDS011;63465;50.862;6.220;2023-01-13T14:17:58;9.63;;;2.10;;
74904;SDS011;63465;50.862;6.220;2023-01-13T14:20:26;12.43;;;2.37;;
74904;SDS011;63465;50.862;6.220;2023-01-13T14:22:54;13.10;;;2.23;;
74904;SDS011;63465;50.862;6.220;2023-01-13T14:25:26;9.87;;;2.70;;
74904;SDS011;63465;50.862;6.220;2023-01-13T14:27:54;6.83;;;1.97;;
74904;SDS011;63465;50.862;6.220;2023-01-13T14:30:22;8.20;;;2.00;;
74904;SDS011;63465;50.862;6.220;2023-01-13T14:32:51;14.93;;;2.60;;
74904;SDS011;63465;50.862;6.220;2023-01-13T14:35:20;4.90;;;1.60;;
74904;SDS011;63465;50.862;6.220;2023-01-13T14:37:46;12.30;;;2.63;;
74904;SDS011;63465;50.862;6.220;2023-01-13T14:43:12;7.30;;;2.50;;
74904;SDS011;63465;50.862;6.220;2023-01-13T14:45:42;10.50;;;3.30;;
74904;SDS011;63465;50.862;6.220;2023-01-13T14:48:20;8.23;;;2.50;;
74904;SDS011;63465;50.862;6.220;2023-01-13T14:50:56;10.40;;;3.33;;
74904;SDS011;63465;50.862;6.220;2023-01-13T14:53:26;10.80;;;3.60;;
74904;SDS011;63465;50.862;6.220;2023-01-13T14:59:01;11.03;;;2.40;;
74904;SDS011;63465;50.862;6.220;2023-01-13T15:01:49;16.80;;;2.87;;
74904;SDS011;63465;50.862;6.220;2023-01-13T15:04:22;10.30;;;2.50;;
74904;SDS011;63465;50.862;6.220;2023-01-13T15:06:51;5.10;;;2.10;;
74904;SDS011;63465;50.862;6.220;2023-01-13T15:09:21;7.90;;;2.00;;
74904;SDS011;63465;50.862;6.220;2023-01-13T15:11:50;8.67;;;2.40;;
74904;SDS011;63465;50.862;6.220;2023-01-13T15:14:19;7.53;;;2.70;;
74904;SDS011;63465;50.862;6.220;2023-01-13T15:16:52;10.47;;;2.67;;
74904;SDS011;63465;50.862;6.220;2023-01-13T15:19:18;10.97;;;3.00;;
74904;SDS011;63465;50.862;6.220;2023-01-13T15:21:45;9.47;;;2.60;;
74904;SDS011;63465;50.862;6.220;2023-01-13T15:24:11;16.93;;;3.43;;
74904;SDS011;63465;50.862;6.220;2023-01-13T15:26:38;12.17;;;2.70;;
74904;SDS011;63465;50.862;6.220;2023-01-13T15:29:05;17.10;;;2.97;;
74904;SDS011;63465;50.862;6.220;2023-01-13T15:31:38;11.27;;;2.90;;
74904;SDS011;63465;50.862;6.220;2023-01-13T15:34:06;16.83;;;3.60;;
74904;SDS011;63465;50.862;6.220;2023-01-13T15:36:33;15.07;;;2.77;;
74904;SDS011;63465;50.862;6.220;2023-01-13T15:39:01;6.07;;;2.17;;
74904;SDS011;63465;50.862;6.220;2023-01-13T15:41:29;12.50;;;3.27;;